createdAt,value
2022-09-14T07:03:43.224Z,19.50
2022-09-14T07:06:12.842Z,19.40
2022-09-14T07:11:14.310Z,19.50
2022-09-14T07:13:42.523Z,19.60
2022-09-14T07:18:39.220Z,19.60
2022-09-14T07:21:10.762Z,19.70
2022-09-14T07:23:40.514Z,19.80
2022-09-14T07:26:11.385Z,19.80
2022-09-14T07:28:40.096Z,19.80
2022-09-14T07:31:16.328Z,19.80
2022-09-14T07:33:44.215Z,19.90
2022-09-14T07:36:14.138Z,20.00
2022-09-14T07:38:52.287Z,20.10
2022-09-14T07:41:21.184Z,20.10
2022-09-14T07:43:50.868Z,20.20
2022-09-14T07:46:18.823Z,20.20
2022-09-14T07:48:46.721Z,20.20
2022-09-14T07:51:15.926Z,20.20
2022-09-14T07:53:44.483Z,20.30
2022-09-14T07:56:13.719Z,20.30
2022-09-14T07:58:42.285Z,20.30
2022-09-14T08:01:11.844Z,20.30
2022-09-14T08:03:40.992Z,20.30
2022-09-14T08:06:11.304Z,20.30
2022-09-14T08:08:43.024Z,20.30
2022-09-14T08:11:12.733Z,20.40
2022-09-14T08:13:42.223Z,20.50
2022-09-14T08:16:10.704Z,20.50
2022-09-14T08:18:39.304Z,20.50
2022-09-14T08:21:09.445Z,20.60
2022-09-14T08:23:38.715Z,20.60
2022-09-14T08:26:09.869Z,20.70
2022-09-14T08:28:38.419Z,20.70
2022-09-14T08:31:07.875Z,20.80
2022-09-14T08:33:37.678Z,20.80
2022-09-14T08:36:05.735Z,20.80
2022-09-14T08:38:33.550Z,20.80
2022-09-14T08:41:11.575Z,20.80
2022-09-14T08:43:40.127Z,20.80
2022-09-14T08:46:16.186Z,20.70
2022-09-14T08:48:49.254Z,20.70
2022-09-14T08:51:18.018Z,20.70
2022-09-14T08:53:47.066Z,20.80
2022-09-14T08:56:19.352Z,20.80
2022-09-14T08:59:10.172Z,20.80
2022-09-14T09:01:48.112Z,20.80
2022-09-14T09:04:25.864Z,20.90
2022-09-14T09:07:01.812Z,20.90
2022-09-14T09:09:35.365Z,20.90
2022-09-14T09:12:06.451Z,20.90
2022-09-14T09:14:36.888Z,20.90
2022-09-14T09:17:14.495Z,20.80
2022-09-14T09:19:59.445Z,20.80
2022-09-14T09:22:30.958Z,20.70
2022-09-14T09:25:00.537Z,20.60
2022-09-14T09:27:29.851Z,20.60
2022-09-14T09:29:57.754Z,20.60
2022-09-14T09:32:26.722Z,20.40
2022-09-14T09:34:54.799Z,20.40
2022-09-14T09:37:24.993Z,20.50
2022-09-14T09:39:52.871Z,20.60
2022-09-14T09:42:23.699Z,20.70
2022-09-14T09:45:02.532Z,20.60
2022-09-14T09:47:34.157Z,20.50
2022-09-14T09:50:05.198Z,20.30
2022-09-14T09:52:34.797Z,20.20
2022-09-14T09:55:05.907Z,20.30
2022-09-14T09:57:35.693Z,20.30
2022-09-14T10:00:20.189Z,20.40
2022-09-14T10:02:48.329Z,20.30
2022-09-14T10:05:24.333Z,20.20
2022-09-14T10:07:57.385Z,20.20
2022-09-14T10:10:40.333Z,20.10
2022-09-14T10:13:28.468Z,20.20
2022-09-14T10:16:07.286Z,20.30
2022-09-14T10:18:35.489Z,20.30
2022-09-14T10:21:09.728Z,20.40
2022-09-14T10:23:39.882Z,20.40
2022-09-14T10:26:23.259Z,20.40
2022-09-14T10:28:52.269Z,20.50
2022-09-14T10:31:28.783Z,20.50
2022-09-14T10:33:57.855Z,20.50
2022-09-14T10:36:30.399Z,20.60
2022-09-14T10:39:03.938Z,20.60
2022-09-14T10:41:40.422Z,20.70
2022-09-14T10:44:43.126Z,20.70
2022-09-14T10:47:29.354Z,20.80
2022-09-14T10:50:11.369Z,20.60
2022-09-14T10:52:48.962Z,20.50
2022-09-14T10:55:34.266Z,20.30
2022-09-14T10:58:24.326Z,20.20
2022-09-14T11:01:03.751Z,20.00
2022-09-14T11:03:48.852Z,20.00
2022-09-14T11:06:30.395Z,20.10
2022-09-14T11:09:02.602Z,20.10
2022-09-14T11:11:45.176Z,20.20
2022-09-14T11:14:23.012Z,20.20
2022-09-14T11:17:24.171Z,20.20
2022-09-14T11:20:02.532Z,20.30
2022-09-14T11:22:39.079Z,20.30
2022-09-14T11:25:12.292Z,20.40
2022-09-14T11:27:44.796Z,20.50
2022-09-14T11:30:16.686Z,20.70
2022-09-14T11:32:49.974Z,20.70
2022-09-14T11:35:25.073Z,20.70
2022-09-14T11:37:57.146Z,20.70
2022-09-14T11:40:31.299Z,20.60
2022-09-14T11:43:03.809Z,20.60
2022-09-14T11:45:37.232Z,20.40
2022-09-14T11:48:41.364Z,20.40
2022-09-14T11:51:07.877Z,20.40
2022-09-14T11:53:36.806Z,20.50
2022-09-14T11:56:05.161Z,20.60
2022-09-14T11:58:33.000Z,20.60
2022-09-14T12:01:30.516Z,20.60
2022-09-14T12:04:19.422Z,20.70
2022-09-14T12:06:51.324Z,20.80
2022-09-14T12:09:42.006Z,20.90
2022-09-14T12:12:34.900Z,20.80
2022-09-14T12:15:05.196Z,20.80
2022-09-14T12:17:39.772Z,20.80
2022-09-14T12:20:32.109Z,20.90
2022-09-14T12:23:19.025Z,21.00
2022-09-14T12:26:13.179Z,21.20
2022-09-14T12:28:48.119Z,21.20
2022-09-14T12:31:36.209Z,21.30
2022-09-14T12:34:16.263Z,21.40
2022-09-14T12:37:17.800Z,21.50
2022-09-14T12:40:34.653Z,21.50
2022-09-14T12:43:48.689Z,21.60
2022-09-14T12:46:40.695Z,21.80
2022-09-14T12:49:32.308Z,21.90
2022-09-14T12:52:11.962Z,21.90
2022-09-14T12:54:55.444Z,21.90
2022-09-14T12:57:34.296Z,21.90
2022-09-14T13:00:11.322Z,21.90
2022-09-14T13:02:56.840Z,21.60
2022-09-14T13:05:27.399Z,21.60
2022-09-14T13:07:57.316Z,21.50
2022-09-14T13:10:33.099Z,21.50
2022-09-14T13:13:03.077Z,21.40
2022-09-14T13:15:36.754Z,21.40
2022-09-14T13:18:15.112Z,21.40
2022-09-14T13:20:51.255Z,21.40
2022-09-14T13:23:21.802Z,21.40
2022-09-14T13:25:50.952Z,21.50
2022-09-14T13:28:20.744Z,21.60
2022-09-14T13:30:55.748Z,21.60
2022-09-14T13:33:25.515Z,21.70
2022-09-14T13:35:54.987Z,21.80
2022-09-14T13:38:25.575Z,21.90
2022-09-14T13:40:56.382Z,21.90
2022-09-14T13:43:24.484Z,21.90
2022-09-14T13:45:53.197Z,21.90
2022-09-14T13:48:21.932Z,22.00
2022-09-14T13:50:52.593Z,22.00
2022-09-14T13:53:43.730Z,22.00
2022-09-14T13:56:20.039Z,22.00
2022-09-14T13:58:49.315Z,22.00
2022-09-14T14:01:26.589Z,22.10
2022-09-14T14:06:26.834Z,22.00
2022-09-14T14:08:58.388Z,22.10
2022-09-14T14:11:36.118Z,22.00
2022-09-14T14:14:20.250Z,22.00
2022-09-14T14:17:25.364Z,21.90
2022-09-14T14:19:55.050Z,21.90
2022-09-14T14:22:27.614Z,21.80
2022-09-14T14:25:14.370Z,21.70
2022-09-14T14:27:45.044Z,21.70
2022-09-14T14:30:15.903Z,21.70
2022-09-14T14:32:43.742Z,21.60
2022-09-14T14:35:17.082Z,21.60
2022-09-14T14:37:47.936Z,21.60
2022-09-14T14:40:16.928Z,21.50
2022-09-14T14:42:45.861Z,21.50
2022-09-14T14:45:18.822Z,21.50
2022-09-14T14:47:47.255Z,21.50
2022-09-14T14:50:17.070Z,21.40
2022-09-14T14:52:46.326Z,21.40
2022-09-14T14:55:14.805Z,21.40
2022-09-14T15:00:16.111Z,21.40
2022-09-14T15:02:43.990Z,21.30
2022-09-14T15:05:12.550Z,21.40
2022-09-14T15:10:14.168Z,21.30
2022-09-14T15:12:42.008Z,21.30
2022-09-14T15:15:13.768Z,21.30
2022-09-14T15:17:41.982Z,21.30
2022-09-14T15:20:10.942Z,21.40
2022-09-14T15:22:40.999Z,21.40
2022-09-14T15:25:11.765Z,21.40
2022-09-14T15:27:40.278Z,21.40
2022-09-14T15:32:37.476Z,21.40
2022-09-14T15:35:06.106Z,21.40
2022-09-14T15:37:33.924Z,21.50
2022-09-14T15:40:01.738Z,21.50
2022-09-14T15:42:31.258Z,21.50
2022-09-14T15:44:59.032Z,21.50
2022-09-14T15:47:26.775Z,21.50
2022-09-14T15:52:22.721Z,21.60
2022-09-14T15:54:51.408Z,21.60
2022-09-14T15:57:19.158Z,21.60
2022-09-14T15:59:48.294Z,21.70
2022-09-14T16:02:16.931Z,21.70
2022-09-14T16:04:44.860Z,21.60
2022-09-14T16:07:13.025Z,21.60
2022-09-14T16:09:42.112Z,21.50
2022-09-14T16:12:11.652Z,21.50
2022-09-14T16:14:39.634Z,21.50
2022-09-14T16:17:11.211Z,21.50
2022-09-14T16:22:07.197Z,21.40
2022-09-14T16:24:35.122Z,21.40
2022-09-14T16:29:37.063Z,21.40
2022-09-14T16:32:08.087Z,21.40
2022-09-14T16:34:37.948Z,21.40
2022-09-14T16:39:34.978Z,21.40
2022-09-14T16:42:03.049Z,21.40
2022-09-14T16:44:31.865Z,21.40
2022-09-14T16:47:00.163Z,21.40
2022-09-14T16:49:29.295Z,21.40
2022-09-14T16:52:00.473Z,21.40
2022-09-14T16:54:29.671Z,21.40
2022-09-14T16:56:59.227Z,21.30
2022-09-14T16:59:27.529Z,21.30
2022-09-14T17:01:55.982Z,21.30
2022-09-14T17:04:24.931Z,21.30
2022-09-14T17:06:55.861Z,21.30
2022-09-14T17:09:26.184Z,21.40
2022-09-14T17:11:54.952Z,21.30
2022-09-14T17:14:25.077Z,21.30
2022-09-14T17:16:53.674Z,21.30
2022-09-14T17:19:21.994Z,21.30
2022-09-14T17:21:50.344Z,21.30
2022-09-14T17:24:20.794Z,21.30
2022-09-14T17:26:48.925Z,21.30
2022-09-14T17:29:16.907Z,21.20
2022-09-14T17:31:45.901Z,21.10
2022-09-14T17:34:15.963Z,21.10
2022-09-14T17:36:43.714Z,21.00
2022-09-14T17:39:12.630Z,21.00
2022-09-14T17:41:42.956Z,21.00
2022-09-14T17:44:12.768Z,21.00
2022-09-14T17:46:50.770Z,21.00
2022-09-14T17:49:20.544Z,21.00
2022-09-14T17:51:49.054Z,21.00
2022-09-14T17:54:17.620Z,21.00
2022-09-14T17:56:46.983Z,21.00
2022-09-14T17:59:17.424Z,21.00
2022-09-14T18:01:45.354Z,21.00
2022-09-14T18:04:15.124Z,21.00
2022-09-14T18:06:44.347Z,21.00
2022-09-14T18:09:14.287Z,20.90
2022-09-14T18:11:42.608Z,20.80
2022-09-14T18:14:13.418Z,20.60
2022-09-14T18:16:42.225Z,20.60
2022-09-14T18:19:10.298Z,20.50
2022-09-14T18:21:38.422Z,20.50
2022-09-14T18:24:06.574Z,20.40
2022-09-14T18:29:03.648Z,20.10
2022-09-14T18:31:32.878Z,20.10
2022-09-14T18:34:01.528Z,20.00
2022-09-14T18:36:30.251Z,19.90
2022-09-14T18:38:58.789Z,19.90
2022-09-14T18:41:28.825Z,19.90
2022-09-14T18:43:56.622Z,20.00
2022-09-14T18:46:28.198Z,20.00
2022-09-14T18:49:00.146Z,20.00
2022-09-14T18:51:29.122Z,20.10
2022-09-14T18:53:57.991Z,20.00
2022-09-14T18:56:26.615Z,19.90
2022-09-14T18:58:54.340Z,19.90
2022-09-14T19:01:22.191Z,19.90
2022-09-14T19:03:50.123Z,19.80
2022-09-14T19:06:20.295Z,19.70
2022-09-14T19:08:48.070Z,19.60
2022-09-14T19:11:17.985Z,19.60
2022-09-14T19:13:46.614Z,19.60
2022-09-14T19:16:16.149Z,19.50
2022-09-14T19:18:45.052Z,19.50
2022-09-14T19:21:14.949Z,19.40
2022-09-14T19:23:44.565Z,19.40
2022-09-14T19:26:16.413Z,19.40
2022-09-14T19:28:45.237Z,19.40
2022-09-14T19:33:45.493Z,19.40
2022-09-14T19:36:17.110Z,19.30
2022-09-14T19:38:46.636Z,19.30
2022-09-14T19:41:14.806Z,19.30
2022-09-14T19:43:42.809Z,19.30
2022-09-14T19:46:13.325Z,19.30
2022-09-14T19:51:14.360Z,19.30
2022-09-14T19:53:42.922Z,19.30
2022-09-14T19:56:14.009Z,19.30
2022-09-14T19:58:43.628Z,19.40
2022-09-14T20:01:12.464Z,19.30
2022-09-14T20:03:40.982Z,19.30
2022-09-14T20:06:10.731Z,19.30
2022-09-14T20:08:38.474Z,19.30
2022-09-14T20:11:07.056Z,19.30
2022-09-14T20:13:36.675Z,19.40
2022-09-14T20:16:10.801Z,19.40
2022-09-14T20:18:38.689Z,19.40
2022-09-14T20:21:09.110Z,19.30
2022-09-14T20:23:45.237Z,19.20
2022-09-14T20:26:20.572Z,19.20
2022-09-14T20:28:49.736Z,19.20
2022-09-14T20:31:17.742Z,19.10
2022-09-14T20:33:45.871Z,19.10
2022-09-14T20:36:15.689Z,19.10
2022-09-14T20:38:48.504Z,19.00
2022-09-14T20:41:18.874Z,19.00
2022-09-14T20:46:20.214Z,18.90
2022-09-14T20:48:49.074Z,19.00
2022-09-14T20:51:20.560Z,19.00
2022-09-14T20:53:48.916Z,19.10
2022-09-14T20:56:18.776Z,19.10
2022-09-14T20:58:47.056Z,19.10
2022-09-14T21:01:16.385Z,19.10
2022-09-14T21:03:47.448Z,19.00
2022-09-14T21:06:18.372Z,19.00
2022-09-14T21:08:46.702Z,18.90
2022-09-14T21:11:17.743Z,18.90
2022-09-14T21:13:46.264Z,18.80
2022-09-14T21:16:19.126Z,18.80
2022-09-14T21:18:55.055Z,18.80
2022-09-14T21:21:28.295Z,18.90
2022-09-14T21:24:00.422Z,18.90
2022-09-14T21:26:29.331Z,18.90
2022-09-14T21:28:58.257Z,18.90
2022-09-14T21:31:29.918Z,18.90
2022-09-14T21:34:10.423Z,18.80
2022-09-14T21:36:41.111Z,18.70
2022-09-14T21:39:10.904Z,18.80
2022-09-14T21:41:40.018Z,18.70
2022-09-14T21:44:09.808Z,18.80
2022-09-14T21:46:38.122Z,18.80
2022-09-14T21:49:13.948Z,18.80
2022-09-14T21:51:44.105Z,18.80
2022-09-14T21:54:13.960Z,18.90
2022-09-14T21:56:43.920Z,19.00
2022-09-14T21:59:15.569Z,19.00
2022-09-14T22:01:43.833Z,19.00
2022-09-14T22:04:18.716Z,19.10
2022-09-14T22:06:53.184Z,19.00
2022-09-14T22:09:24.411Z,19.00
2022-09-14T22:11:52.169Z,19.00
2022-09-14T22:14:21.579Z,19.00
2022-09-14T22:16:50.138Z,19.10
2022-09-14T22:19:21.399Z,19.10
2022-09-14T22:21:49.981Z,19.00
2022-09-14T22:24:20.311Z,19.00
2022-09-14T22:26:48.507Z,19.00
2022-09-14T22:29:17.136Z,19.00
2022-09-14T22:31:46.290Z,19.00
2022-09-14T22:34:15.202Z,19.00
2022-09-14T22:36:44.620Z,18.90
2022-09-14T22:39:12.636Z,18.90
2022-09-14T22:41:40.859Z,18.90
2022-09-14T22:44:09.693Z,18.90
2022-09-14T22:46:37.672Z,20.90
2022-09-14T22:49:05.389Z,18.90
2022-09-14T22:51:33.411Z,19.00
2022-09-14T22:54:02.910Z,19.00
2022-09-14T22:56:32.963Z,19.00
2022-09-14T22:59:02.108Z,19.00
2022-09-14T23:01:32.640Z,19.00
2022-09-14T23:04:02.463Z,19.00
2022-09-14T23:06:32.094Z,19.00
2022-09-14T23:09:01.026Z,19.00
2022-09-14T23:11:30.868Z,19.10
2022-09-14T23:13:58.863Z,19.10
2022-09-14T23:16:28.290Z,19.10
2022-09-14T23:18:57.577Z,19.10
2022-09-14T23:21:25.521Z,19.10
2022-09-14T23:23:54.101Z,19.10
2022-09-14T23:28:55.853Z,19.20
2022-09-14T23:31:23.911Z,19.20
2022-09-14T23:33:52.562Z,19.20
2022-09-14T23:36:22.035Z,19.20
2022-09-14T23:38:50.264Z,19.20
2022-09-14T23:41:19.041Z,19.20
2022-09-14T23:43:47.221Z,19.30
2022-09-14T23:46:16.969Z,19.20
2022-09-14T23:51:13.517Z,19.20
2022-09-14T23:53:41.897Z,19.20
2022-09-14T23:56:10.161Z,19.30
2022-09-14T23:58:38.153Z,19.30
